createdAt,value
2022-12-31T00:01:32.128Z,100150.00
2022-12-31T00:03:59.070Z,100162.31
2022-12-31T00:06:28.232Z,100165.00
2022-12-31T00:08:58.969Z,100168.47
2022-12-31T00:11:27.126Z,100170.13
2022-12-31T00:13:54.351Z,100166.41
2022-12-31T00:16:23.152Z,100170.13
2022-12-31T00:18:51.943Z,100173.59
2022-12-31T00:21:19.708Z,100169.31
2022-12-31T00:23:47.248Z,100172.19
2022-12-31T00:26:17.596Z,100169.31
2022-12-31T00:28:45.389Z,100171.50
2022-12-31T00:31:14.910Z,100168.63
2022-12-31T00:33:42.093Z,100180.75
2022-12-31T00:36:11.004Z,100173.53
2022-12-31T00:38:39.208Z,100177.84
2022-12-31T00:41:06.577Z,100175.75
2022-12-31T00:43:35.180Z,100173.69
2022-12-31T00:46:04.833Z,100171.63
2022-12-31T00:48:32.665Z,100196.69
2022-12-31T00:51:00.515Z,100197.72
2022-12-31T00:53:28.303Z,100189.13
2022-12-31T00:56:00.052Z,100186.28
2022-12-31T00:58:26.849Z,100188.59
2022-12-31T01:00:54.926Z,100184.50
2022-12-31T01:03:21.962Z,100193.97
2022-12-31T01:05:50.328Z,100206.13
2022-12-31T01:08:19.855Z,100209.00
2022-12-31T01:11:07.795Z,100190.78
2022-12-31T01:13:35.072Z,100191.81
2022-12-31T01:16:09.179Z,100205.16
2022-12-31T01:18:36.388Z,100211.72
2022-12-31T01:21:07.259Z,100203.72
2022-12-31T01:23:34.652Z,100203.94
2022-12-31T01:26:02.800Z,100186.50
2022-12-31T01:28:31.892Z,100189.59
2022-12-31T01:30:58.894Z,100193.31
2022-12-31T01:33:27.100Z,100183.44
2022-12-31T01:35:54.004Z,100178.09
2022-12-31T01:38:20.728Z,100179.97
2022-12-31T01:40:47.398Z,100175.66
2022-12-31T01:43:17.071Z,100178.31
2022-12-31T01:45:45.858Z,100186.31
2022-12-31T01:48:16.087Z,100186.31
2022-12-31T01:50:46.906Z,100192.91
2022-12-31T01:53:15.174Z,100192.09
2022-12-31T01:55:47.439Z,100205.44
2022-12-31T01:58:19.077Z,100200.09
2022-12-31T02:00:46.774Z,100198.44
2022-12-31T02:03:13.886Z,100206.47
2022-12-31T02:05:47.143Z,100210.16
2022-12-31T02:08:14.397Z,100214.88
2022-12-31T02:10:42.499Z,100225.56
2022-12-31T02:13:09.962Z,100235.66
2022-12-31T02:15:47.231Z,100237.50
2022-12-31T02:18:24.797Z,100248.38
2022-12-31T02:21:10.185Z,100243.44
2022-12-31T02:24:02.164Z,100249.22
2022-12-31T02:26:49.953Z,100222.97
2022-12-31T02:29:58.278Z,100215.78
2022-12-31T02:32:33.739Z,100191.16
2022-12-31T02:35:07.351Z,100183.41
2022-12-31T02:37:37.054Z,100190.38
2022-12-31T02:40:06.580Z,100199.41
2022-12-31T02:42:33.243Z,100195.72
2022-12-31T02:45:00.038Z,100184.44
2022-12-31T02:47:41.881Z,100182.78
2022-12-31T02:50:30.587Z,100179.09
2022-12-31T02:53:08.123Z,100186.50
2022-12-31T02:55:42.455Z,100191.81
2022-12-31T02:58:14.811Z,100192.03
2022-12-31T03:01:04.750Z,100196.78
2022-12-31T03:03:33.232Z,100192.47
2022-12-31T03:06:01.990Z,100198.84
2022-12-31T03:08:28.860Z,100194.53
2022-12-31T03:10:57.003Z,100192.06
2022-12-31T03:13:24.972Z,100201.91
2022-12-31T03:15:51.889Z,100207.50
2022-12-31T03:18:39.534Z,100204.22
2022-12-31T03:21:30.807Z,100207.91
2022-12-31T03:24:16.565Z,100197.66
2022-12-31T03:26:43.329Z,100215.50
2022-12-31T03:29:10.041Z,100219.44
2022-12-31T03:31:37.489Z,100207.13
2022-12-31T03:34:05.758Z,100217.78
2022-12-31T03:36:36.249Z,100219.63
2022-12-31T03:39:03.155Z,100215.34
2022-12-31T03:41:29.764Z,100220.66
2022-12-31T03:43:56.496Z,100218.22
2022-12-31T03:46:23.386Z,100213.69
2022-12-31T03:48:50.095Z,100209.19
2022-12-31T03:51:16.948Z,100210.81
2022-12-31T03:53:45.039Z,100211.63
2022-12-31T03:56:11.671Z,100213.28
2022-12-31T03:58:38.344Z,100215.94
2022-12-31T04:01:05.235Z,100223.13
2022-12-31T04:03:32.043Z,100228.47
2022-12-31T04:05:58.798Z,100225.19
2022-12-31T04:08:25.891Z,100226.81
2022-12-31T04:10:53.933Z,100217.19
2022-12-31T04:13:20.622Z,100221.69
2022-12-31T04:15:50.085Z,100219.84
2022-12-31T04:18:16.822Z,100212.88
2022-12-31T04:20:43.543Z,100215.53
2022-12-31T04:23:10.309Z,100211.03
2022-12-31T04:25:36.969Z,100196.88
2022-12-31T04:28:05.199Z,100205.69
2022-12-31T04:30:31.843Z,100202.22
2022-12-31T04:32:58.598Z,100213.47
2022-12-31T04:35:25.263Z,100214.50
2022-12-31T04:37:52.021Z,100210.81
2022-12-31T04:40:18.729Z,100194.81
2022-12-31T04:42:45.469Z,100189.50
2022-12-31T04:45:13.491Z,100195.44
2022-12-31T04:47:40.277Z,100191.13
2022-12-31T04:50:07.939Z,100186.63
2022-12-31T04:52:40.531Z,100191.94
2022-12-31T04:55:09.709Z,100184.97
2022-12-31T04:57:36.368Z,100195.63
2022-12-31T05:00:03.914Z,100185.78
2022-12-31T05:02:32.004Z,100174.31
2022-12-31T05:04:58.811Z,100182.09
2022-12-31T05:07:25.415Z,100177.59
2022-12-31T05:09:52.167Z,100180.84
2022-12-31T05:12:19.177Z,100184.31
2022-12-31T05:14:46.267Z,100187.00
2022-12-31T05:17:12.988Z,100208.31
2022-12-31T05:19:46.699Z,100192.31
2022-12-31T05:22:39.416Z,100198.47
2022-12-31T05:25:07.258Z,100202.16
2022-12-31T05:27:34.175Z,100203.00
2022-12-31T05:30:01.025Z,100188.63
2022-12-31T05:32:28.139Z,100206.47
2022-12-31T05:34:56.835Z,100218.56
2022-12-31T05:37:23.769Z,100214.06
2022-12-31T05:39:52.190Z,100212.22
2022-12-31T05:42:18.917Z,100213.84
2022-12-31T05:44:45.663Z,100215.50
2022-12-31T05:47:12.313Z,100217.09
2022-12-31T05:49:39.054Z,100210.75
2022-12-31T05:52:07.992Z,100212.38
2022-12-31T05:54:34.770Z,100207.06
2022-12-31T05:57:01.745Z,100219.34
2022-12-31T05:59:28.465Z,100211.16
2022-12-31T06:01:55.159Z,100217.31
2022-12-31T06:04:22.173Z,100223.47
2022-12-31T06:06:49.285Z,100220.78
2022-12-31T06:09:18.369Z,100224.28
2022-12-31T06:11:45.641Z,100223.22
2022-12-31T06:14:12.797Z,100216.84
2022-12-31T06:16:40.085Z,100229.16
2022-12-31T06:19:07.367Z,100226.50
2022-12-31T06:21:34.142Z,100218.28
2022-12-31T06:24:00.911Z,100222.59
2022-12-31T06:26:28.970Z,100217.84
2022-12-31T06:28:55.720Z,100217.63
2022-12-31T06:31:22.755Z,100230.75
2022-12-31T06:33:49.522Z,100221.72
2022-12-31T06:36:16.920Z,100229.53
2022-12-31T06:38:44.511Z,100232.78
2022-12-31T06:41:14.966Z,100223.53
2022-12-31T06:43:46.678Z,100238.31
2022-12-31T06:46:16.132Z,100240.53
2022-12-31T06:48:44.785Z,100239.28
2022-12-31T06:51:17.349Z,100232.75
2022-12-31T06:53:45.275Z,100231.28
2022-12-31T06:56:15.944Z,100251.16
2022-12-31T06:58:43.671Z,100249.91
2022-12-31T07:01:37.335Z,100254.00
2022-12-31T07:04:27.965Z,100250.47
2022-12-31T07:07:02.748Z,100240.97
2022-12-31T07:09:37.849Z,100237.69
2022-12-31T07:12:12.347Z,100229.00
2022-12-31T07:14:46.351Z,100231.00
2022-12-31T07:17:26.738Z,100230.81
2022-12-31T07:20:02.573Z,100225.84
2022-12-31T07:22:29.797Z,100218.66
2022-12-31T07:24:57.131Z,100229.09
2022-12-31T07:27:59.543Z,100230.75
2022-12-31T07:30:36.524Z,100226.00
2022-12-31T07:33:28.885Z,100229.03
2022-12-31T07:36:09.307Z,100221.63
2022-12-31T07:38:41.047Z,100227.59
2022-12-31T07:41:16.372Z,100220.41
2022-12-31T07:43:53.554Z,100228.19
2022-12-31T07:46:28.741Z,100234.13
2022-12-31T07:48:58.103Z,100233.06
2022-12-31T07:51:25.489Z,100236.34
2022-12-31T07:53:52.659Z,100264.72
2022-12-31T07:56:19.442Z,100269.59
2022-12-31T07:58:59.614Z,100263.81
2022-12-31T08:01:34.762Z,100244.66
2022-12-31T08:04:09.624Z,100232.13
2022-12-31T08:06:45.761Z,100229.25
2022-12-31T08:09:26.303Z,100233.56
2022-12-31T08:11:56.688Z,100252.88
2022-12-31T08:14:24.599Z,100278.56
2022-12-31T08:16:51.845Z,100298.66
2022-12-31T08:19:25.684Z,100304.59
2022-12-31T08:22:09.792Z,100288.56
2022-12-31T08:24:51.073Z,100299.47
2022-12-31T08:27:25.864Z,100300.97
2022-12-31T08:30:01.450Z,100298.50
2022-12-31T08:32:35.315Z,100309.41
2022-12-31T08:35:14.691Z,100312.28
2022-12-31T08:37:48.499Z,100308.00
2022-12-31T08:40:24.316Z,100331.22
2022-12-31T08:43:20.578Z,100318.91
2022-12-31T08:45:49.547Z,100329.59
2022-12-31T08:48:26.866Z,100331.66
2022-12-31T08:50:55.688Z,100347.69
2022-12-31T08:53:22.975Z,100350.34
2022-12-31T08:55:55.115Z,100381.59
2022-12-31T08:58:37.999Z,100384.25
2022-12-31T09:01:07.980Z,100355.91
2022-12-31T09:04:00.025Z,100379.13
2022-12-31T09:06:33.131Z,100388.78
2022-12-31T09:09:09.286Z,100401.09
2022-12-31T09:11:49.666Z,100405.41
2022-12-31T09:14:29.287Z,100407.06
2022-12-31T09:17:02.456Z,100399.88
2022-12-31T09:19:29.254Z,100403.34
2022-12-31T09:21:57.888Z,100411.94
2022-12-31T09:24:25.267Z,100418.94
2022-12-31T09:27:04.716Z,100424.91
2022-12-31T09:29:43.521Z,100430.03
2022-12-31T09:32:23.453Z,100432.47
2022-12-31T09:34:55.405Z,100435.75
2022-12-31T09:37:45.477Z,100427.53
2022-12-31T09:40:54.065Z,100423.59
2022-12-31T09:44:00.750Z,100432.22
2022-12-31T09:46:57.871Z,100435.50
2022-12-31T09:50:01.391Z,100439.59
2022-12-31T09:52:41.591Z,100425.78
2022-12-31T09:55:29.242Z,100418.16
2022-12-31T09:58:07.523Z,100422.03
2022-12-31T10:00:43.349Z,100422.19
2022-12-31T10:03:36.562Z,100433.06
2022-12-31T10:06:20.092Z,100436.09
2022-12-31T10:09:34.527Z,100437.31
2022-12-31T10:12:25.043Z,100441.22
2022-12-31T10:15:09.631Z,100434.63
2022-12-31T10:17:49.142Z,100443.81
2022-12-31T10:20:41.556Z,100450.59
2022-12-31T10:23:54.198Z,100442.94
2022-12-31T10:26:37.157Z,100446.84
2022-12-31T10:29:18.259Z,100449.06
2022-12-31T10:31:56.237Z,100444.09
2022-12-31T10:34:31.577Z,100442.81
2022-12-31T10:37:06.164Z,100437.84
2022-12-31T10:39:52.510Z,100442.78
2022-12-31T10:42:59.877Z,100443.13
2022-12-31T10:45:55.987Z,100440.84
2022-12-31T10:48:43.313Z,100447.59
2022-12-31T10:51:32.921Z,100441.81
2022-12-31T10:54:38.564Z,100442.41
2022-12-31T10:57:34.977Z,100444.03
2022-12-31T11:00:13.098Z,100435.56
2022-12-31T11:03:19.990Z,100439.91
2022-12-31T11:06:14.974Z,100445.81
2022-12-31T11:09:00.771Z,100441.91
2022-12-31T11:11:34.172Z,100445.19
2022-12-31T11:14:37.161Z,100431.56
2022-12-31T11:17:16.588Z,100432.16
2022-12-31T11:19:57.870Z,100434.59
2022-12-31T11:22:41.947Z,100421.81
2022-12-31T11:25:23.726Z,100426.97
2022-12-31T11:28:07.568Z,100432.06
2022-12-31T11:30:46.090Z,100421.16
2022-12-31T11:33:25.322Z,100430.81
2022-12-31T11:36:12.476Z,100435.13
2022-12-31T11:38:45.612Z,100442.13
2022-12-31T11:41:19.562Z,100440.28
2022-12-31T11:43:55.819Z,100436.56
2022-12-31T11:46:43.738Z,100434.66
2022-12-31T11:49:30.466Z,100434.66
2022-12-31T11:52:44.938Z,100431.56
2022-12-31T11:55:47.659Z,100430.75
2022-12-31T11:58:16.825Z,100436.47
2022-12-31T12:00:48.715Z,100436.22
2022-12-31T12:03:15.735Z,100429.41
2022-12-31T12:05:42.546Z,100444.19
2022-12-31T12:08:09.340Z,100439.22
2022-12-31T12:10:43.386Z,100444.13
2022-12-31T12:13:13.417Z,100443.66
2022-12-31T12:15:45.664Z,100445.09
2022-12-31T12:18:25.239Z,100440.53
2022-12-31T12:20:52.009Z,100456.16
2022-12-31T12:23:24.628Z,100443.56
2022-12-31T12:25:53.424Z,100457.78
2022-12-31T12:28:21.978Z,100453.25
2022-12-31T12:30:55.462Z,100462.31
2022-12-31T12:33:22.209Z,100456.97
2022-12-31T12:35:50.979Z,100460.69
2022-12-31T12:38:20.024Z,100457.19
2022-12-31T12:40:57.109Z,100459.03
2022-12-31T12:43:27.196Z,100458.25
2022-12-31T12:45:58.888Z,100455.59
2022-12-31T12:48:32.666Z,100453.13
2022-12-31T12:51:00.157Z,100455.19
2022-12-31T12:53:39.152Z,100457.88
2022-12-31T12:56:16.530Z,100453.56
2022-12-31T12:58:48.538Z,100459.13
2022-12-31T13:01:24.302Z,100455.63
2022-12-31T13:04:38.147Z,100452.16
2022-12-31T13:07:23.447Z,100452.16
2022-12-31T13:10:06.316Z,100456.44
2022-12-31T13:13:13.773Z,100463.66
2022-12-31T13:15:34.280Z,100458.91
2022-12-31T13:18:12.648Z,100479.31
2022-12-31T13:20:44.791Z,100478.25
2022-12-31T13:23:22.641Z,100463.00
2022-12-31T13:26:02.188Z,100471.66
2022-12-31T13:28:32.224Z,100465.47
2022-12-31T13:31:11.764Z,100468.97
2022-12-31T13:33:42.984Z,100475.94
2022-12-31T13:36:13.686Z,100472.44
2022-12-31T13:38:44.746Z,100467.09
2022-12-31T13:41:17.079Z,100467.09
2022-12-31T13:43:54.574Z,100475.13
2022-12-31T13:46:34.100Z,100472.44
2022-12-31T13:49:04.937Z,100480.47
2022-12-31T13:51:41.934Z,100469.75
2022-12-31T13:54:22.453Z,100477.78
2022-12-31T13:56:52.152Z,100472.44
2022-12-31T13:59:26.483Z,100462.78
2022-12-31T14:02:02.890Z,100458.47
2022-12-31T14:04:36.307Z,100464.66
2022-12-31T14:07:09.844Z,100473.72
2022-12-31T14:09:37.864Z,100474.53
2022-12-31T14:12:17.862Z,100478.03
2022-12-31T14:14:53.646Z,100468.97
2022-12-31T14:17:28.309Z,100478.03
2022-12-31T14:20:06.719Z,100484.22
2022-12-31T14:22:41.631Z,100477.00
2022-12-31T14:25:20.127Z,100473.50
2022-12-31T14:27:48.419Z,100469.75
2022-12-31T14:30:20.093Z,100478.88
2022-12-31T14:33:18.491Z,100470.59
2022-12-31T14:36:21.883Z,100468.72
2022-12-31T14:39:01.186Z,100460.47
2022-12-31T14:41:44.139Z,100464.78
2022-12-31T14:44:27.075Z,100474.47
2022-12-31T14:47:12.827Z,100482.28
2022-12-31T14:49:50.151Z,100489.50
2022-12-31T14:52:22.501Z,100492.19
2022-12-31T14:55:01.605Z,100490.53
2022-12-31T14:57:54.299Z,100494.03
2022-12-31T15:00:30.782Z,100486.81
2022-12-31T15:03:01.603Z,100494.03
2022-12-31T15:05:30.620Z,100503.09
2022-12-31T15:08:21.608Z,100508.25
2022-12-31T15:11:04.466Z,100513.34
2022-12-31T15:13:45.647Z,100503.72
2022-12-31T15:16:35.237Z,100503.47
2022-12-31T15:19:31.084Z,100504.06
2022-12-31T15:22:05.679Z,100502.41
2022-12-31T15:24:32.961Z,100512.31
2022-12-31T15:27:02.400Z,100508.59
2022-12-31T15:29:32.932Z,100507.78
2022-12-31T15:32:03.447Z,100508.81
2022-12-31T15:34:34.839Z,100505.09
2022-12-31T15:37:03.820Z,100519.31
2022-12-31T15:39:40.563Z,100508.81
2022-12-31T15:42:37.876Z,100506.97
2022-12-31T15:45:13.530Z,100497.06
2022-12-31T15:47:43.873Z,100498.72
2022-12-31T15:50:18.909Z,100507.56
2022-12-31T15:52:51.283Z,100511.06
2022-12-31T15:55:27.196Z,100510.88
2022-12-31T15:57:58.435Z,100508.19
2022-12-31T16:00:25.255Z,100502.84
2022-12-31T16:02:55.364Z,100498.31
2022-12-31T16:05:25.873Z,100493.75
2022-12-31T16:07:54.528Z,100498.09
2022-12-31T16:10:25.308Z,100500.75
2022-12-31T16:12:53.731Z,100506.13
2022-12-31T16:15:23.641Z,100510.41
2022-12-31T16:18:02.589Z,100510.41
2022-12-31T16:20:33.625Z,100506.91
2022-12-31T16:23:03.137Z,100503.19
2022-12-31T16:25:32.917Z,100502.38
2022-12-31T16:28:02.579Z,100493.28
2022-12-31T16:30:31.395Z,100484.22
2022-12-31T16:33:00.593Z,100482.56
2022-12-31T16:35:29.519Z,100478.03
2022-12-31T16:38:12.461Z,100491.66
2022-12-31T16:40:40.387Z,100487.13
2022-12-31T16:43:24.269Z,100487.94
2022-12-31T16:45:52.442Z,100484.44
2022-12-31T16:48:21.191Z,100488.16
2022-12-31T16:50:50.705Z,100485.47
2022-12-31T16:53:22.350Z,100491.66
2022-12-31T16:55:55.062Z,100490.84
2022-12-31T16:58:28.333Z,100482.78
2022-12-31T17:01:00.336Z,100491.09
2022-12-31T17:03:29.873Z,100480.38
2022-12-31T17:06:02.068Z,100478.50
2022-12-31T17:08:40.028Z,100480.38
2022-12-31T17:11:23.236Z,100483.03
2022-12-31T17:13:59.050Z,100482.44
2022-12-31T17:16:26.582Z,100479.78
2022-12-31T17:18:53.593Z,100481.00
2022-12-31T17:21:22.931Z,100484.72
2022-12-31T17:23:55.561Z,100479.59
2022-12-31T17:26:25.631Z,100479.00
2022-12-31T17:28:54.102Z,100469.09
2022-12-31T17:31:33.568Z,100462.94
2022-12-31T17:34:22.452Z,100477.34
2022-12-31T17:37:00.416Z,100485.63
2022-12-31T17:39:42.645Z,100482.13
2022-12-31T17:42:11.234Z,100464.41
2022-12-31T17:44:42.523Z,100472.44
2022-12-31T17:47:13.892Z,100475.13
2022-12-31T17:49:41.224Z,100472.69
2022-12-31T17:52:12.990Z,100473.72
2022-12-31T17:54:41.645Z,100465.91
2022-12-31T17:57:21.675Z,100476.63
2022-12-31T17:59:48.431Z,100470.44
2022-12-31T18:02:15.280Z,100470.66
2022-12-31T18:04:42.113Z,100458.09
2022-12-31T18:07:09.099Z,100462.06
2022-12-31T18:09:35.850Z,100474.38
2022-12-31T18:12:05.998Z,100486.16
2022-12-31T18:14:33.498Z,100480.81
2022-12-31T18:17:00.864Z,100485.34
2022-12-31T18:20:02.850Z,100495.22
2022-12-31T18:22:16.183Z,100479.97
2022-12-31T18:24:43.421Z,100494.19
2022-12-31T18:27:16.848Z,100479.97
2022-12-31T18:29:43.622Z,100479.97
2022-12-31T18:32:20.117Z,100481.84
2022-12-31T18:34:47.081Z,100481.03
2022-12-31T18:37:21.284Z,100472.16
2022-12-31T18:39:48.667Z,100468.44
2022-12-31T18:42:18.616Z,100463.09
2022-12-31T18:44:49.251Z,100474.63
2022-12-31T18:47:17.843Z,100475.44
2022-12-31T18:49:45.022Z,100465.78
2022-12-31T18:52:14.296Z,100471.13
2022-12-31T18:54:41.305Z,100483.69
2022-12-31T18:57:10.473Z,100488.22
2022-12-31T18:59:39.743Z,100485.56
2022-12-31T19:02:14.680Z,100484.75
2022-12-31T19:04:41.734Z,100486.81
2022-12-31T19:07:08.624Z,100506.38
2022-12-31T19:09:56.375Z,100492.16
2022-12-31T19:12:22.392Z,100494.03
2022-12-31T19:14:50.983Z,100483.31
2022-12-31T19:17:17.982Z,100487.03
2022-12-31T19:19:45.255Z,100493.19
2022-12-31T19:22:16.398Z,100506.84
2022-12-31T19:24:43.505Z,100509.53
2022-12-31T19:27:10.344Z,100510.56
2022-12-31T19:29:39.490Z,100514.06
2022-12-31T19:32:07.701Z,100516.94
2022-12-31T19:34:34.998Z,100509.72
2022-12-31T19:37:02.016Z,100517.75
2022-12-31T19:39:28.807Z,100522.09
2022-12-31T19:41:59.150Z,100506.03
2022-12-31T19:44:27.243Z,100504.16
2022-12-31T19:46:55.410Z,100514.06
2022-12-31T19:49:24.111Z,100506.84
2022-12-31T19:51:51.054Z,100509.72
2022-12-31T19:54:18.730Z,100497.16
2022-12-31T19:56:45.425Z,100518.59
2022-12-31T19:59:12.860Z,100519.63
2022-12-31T20:01:39.949Z,100524.97
2022-12-31T20:04:06.879Z,100521.69
2022-12-31T20:06:35.292Z,100528.91
2022-12-31T20:09:02.944Z,100521.69
2022-12-31T20:11:29.920Z,100521.91
2022-12-31T20:13:56.670Z,100513.88
2022-12-31T20:16:26.883Z,100527.50
2022-12-31T20:18:54.058Z,100525.88
2022-12-31T20:21:23.188Z,100531.22
2022-12-31T20:23:53.195Z,100525.88
2022-12-31T20:26:22.113Z,100523.19
2022-12-31T20:28:49.436Z,100528.56
2022-12-31T20:31:18.878Z,100533.91
2022-12-31T20:33:46.172Z,100541.94
2022-12-31T20:36:14.876Z,100542.75
2022-12-31T20:38:41.931Z,100540.91
2022-12-31T20:41:13.020Z,100539.03
2022-12-31T20:43:40.358Z,100542.97
2022-12-31T20:46:14.354Z,100536.59
2022-12-31T20:48:44.728Z,100536.59
2022-12-31T20:51:12.869Z,100540.09
2022-12-31T20:53:40.032Z,100544.63
2022-12-31T20:56:11.284Z,100548.13
2022-12-31T20:58:39.559Z,100542.97
2022-12-31T21:01:08.301Z,100554.28
2022-12-31T21:06:23.122Z,100539.84
2022-12-31T21:08:51.673Z,100535.31
2022-12-31T21:11:36.959Z,100534.47
2022-12-31T21:14:05.243Z,100546.00
2022-12-31T21:16:32.243Z,100543.34
2022-12-31T21:18:59.160Z,100542.28
2022-12-31T21:21:25.994Z,100541.25
2022-12-31T21:23:52.838Z,100557.13
2022-12-31T21:26:19.991Z,100553.41
2022-12-31T21:28:46.845Z,100553.19
2022-12-31T21:31:16.151Z,100544.34
2022-12-31T21:33:45.318Z,100557.47
2022-12-31T21:36:12.414Z,100568.78
2022-12-31T21:38:39.602Z,100571.25
2022-12-31T21:41:08.239Z,100576.41
2022-12-31T21:43:36.534Z,100584.19
2022-12-31T21:46:06.169Z,100581.28
2022-12-31T21:48:34.414Z,100579.44
2022-12-31T21:51:07.906Z,100576.53
2022-12-31T21:53:37.534Z,100572.81
2022-12-31T21:56:09.393Z,100575.28
2022-12-31T21:58:36.323Z,100582.25
2022-12-31T22:01:22.283Z,100586.56
2022-12-31T22:03:50.784Z,100584.72
2022-12-31T22:06:22.870Z,100576.47
2022-12-31T22:08:51.605Z,100578.94
2022-12-31T22:11:21.140Z,100590.25
2022-12-31T22:13:55.423Z,100598.03
2022-12-31T22:16:23.390Z,100605.03
2022-12-31T22:18:55.853Z,100603.81
2022-12-31T22:21:31.562Z,100598.25
2022-12-31T22:24:03.500Z,100611.66
2022-12-31T22:26:31.316Z,100604.19
2022-12-31T22:28:59.697Z,100619.22
2022-12-31T22:31:30.868Z,100619.81
2022-12-31T22:33:59.800Z,100617.75
2022-12-31T22:36:26.847Z,100614.81
2022-12-31T22:38:59.382Z,100612.16
2022-12-31T22:41:27.775Z,100613.56
2022-12-31T22:44:03.153Z,100618.94
2022-12-31T22:46:37.166Z,100622.22
2022-12-31T22:49:06.674Z,100617.69
2022-12-31T22:51:56.859Z,100623.84
2022-12-31T22:54:27.456Z,100630.03
2022-12-31T22:56:54.563Z,100640.50
2022-12-31T22:59:21.959Z,100630.63
2022-12-31T23:01:49.565Z,100626.06
2022-12-31T23:04:24.499Z,100623.19
2022-12-31T23:06:58.979Z,100629.34
2022-12-31T23:09:44.665Z,100637.19
2022-12-31T23:12:13.683Z,100648.72
2022-12-31T23:15:01.285Z,100645.00
2022-12-31T23:17:47.891Z,100646.03
2022-12-31T23:20:38.916Z,100648.72
2022-12-31T23:23:15.588Z,100656.50
2022-12-31T23:25:55.662Z,100657.59
2022-12-31T23:28:25.086Z,100663.53
2022-12-31T23:30:53.857Z,100660.03
2022-12-31T23:33:25.226Z,100662.47
2022-12-31T23:36:02.388Z,100660.63
2022-12-31T23:38:49.999Z,100661.44
2022-12-31T23:41:21.028Z,100644.31
2022-12-31T23:43:57.033Z,100659.38
2022-12-31T23:46:29.828Z,100657.25
2022-12-31T23:48:59.404Z,100654.59
2022-12-31T23:51:29.354Z,100645.28
2022-12-31T23:53:57.988Z,100649.59
2022-12-31T23:59:13.306Z,100653.94
